KCSV/CSV METAR and TAF weather

Enter ICAO airport designator
Station Type Date Time Source
KCSV METAR 2022/06/26 06:53 UTC NOAA

KCSV 260653Z AUTO 00000KT 10SM CLR 22/19 A3013 RMK AO2 SLP180 T02170194


Station Type Date Time Source
KCSV Decoded METAR 2022/06/26 06:53 UTC NOAA

CROSSVILLE MEMORIAL AIRPORT , TN, United States (KCSV) 35-57N 85-05W 570M
Jun 26, 2022 - 02:53 AM EDT / 2022.06.26 0653 UTC
Wind: Calm:0
Visibility: 10 mile(s):0
Sky conditions: clear
Temperature: 71.1 F (21.7 C)
Dew Point: 66.9 F (19.4 C)
Relative Humidity: 86%
Pressure (altimeter): 30.13 in. Hg (1020 hPa)
ob: KCSV 260653Z AUTO 00000KT 10SM CLR 22/19 A3013 RMK AO2 SLP180 T02170194
cycle: 7

Station Type Date Time Source
KCSV TAF 2022/06/26 06:27 UTC NOAA

TAF KCSV 260525Z 2606/2706 16005KT P6SM FEW030
FM262000 22005KT P6SM VCTS SCT050CB SCT100
TEMPO 2622/2702 5SM -TSRA OVC035CB
FM270400 32005KT 6SM -SHRA BR VCTS BKN045CB OVC100

Example: see airport list